Time;durP1;ratioP1;P1;durP2;ratioP2;P2;SDS_P1;SDS_P2;PMS_P1;PMS_P2;Temp;Humidity;BMP_temperature;BMP_pressure;BME280_temperature;BME280_humidity;BME280_pressure;Samples;Min_cycle;Max_cycle;Signal;HPM_P1;HPM_P2
2022/02/07 00:01:17;;;;;;;3.40;2.37;;;;;;;5.51;100.00;97202.50;5028955;28;20028;-60
2022/02/07 00:03:47;;;;;;;2.90;2.57;;;;;;;5.56;100.00;97193.94;5030548;28;20041;-59
2022/02/07 00:06:13;;;;;;;2.70;2.27;;;;;;;5.50;100.00;97183.03;5031958;28;20033;-58
2022/02/07 00:08:40;;;;;;;4.73;2.40;;;;;;;5.48;100.00;97197.47;5033765;28;20112;-60
2022/02/07 00:11:05;;;;;;;5.43;2.73;;;;;;;5.48;100.00;97194.91;5028796;28;20116;-59
2022/02/07 00:13:31;;;;;;;4.67;2.70;;;;;;;5.46;100.00;97189.03;5031155;28;20402;-60
2022/02/07 00:15:56;;;;;;;2.90;2.57;;;;;;;5.47;100.00;97187.34;5031424;28;20091;-59
2022/02/07 00:18:25;;;;;;;4.00;3.37;;;;;;;5.49;100.00;97181.34;5032495;28;20043;-58
2022/02/07 00:20:50;;;;;;;3.13;2.33;;;;;;;5.45;100.00;97187.38;5026716;28;20621;-59
2022/02/07 00:23:16;;;;;;;2.27;2.07;;;;;;;5.36;100.00;97189.25;5029538;28;20030;-58
2022/02/07 00:25:43;;;;;;;3.13;2.60;;;;;;;5.28;100.00;97183.50;5032679;28;20037;-59
2022/02/07 00:28:08;;;;;;;1.93;1.63;;;;;;;5.20;100.00;97162.53;5032636;28;20036;-59
2022/02/07 00:30:34;;;;;;;2.63;1.97;;;;;;;5.20;100.00;97163.38;5028833;28;20420;-59
2022/02/07 00:33:00;;;;;;;3.30;1.80;;;;;;;5.15;100.00;97156.69;5029611;28;20029;-59
2022/02/07 00:35:25;;;;;;;2.77;2.57;;;;;;;5.20;100.00;97158.28;5031065;28;20037;-59
2022/02/07 00:37:54;;;;;;;4.70;2.17;;;;;;;5.22;100.00;97151.44;5028867;28;20438;-61
2022/02/07 00:43:02;;;;;;;3.60;2.20;;;;;;;5.15;100.00;97149.91;5028632;28;20041;-59
2022/02/07 00:48:00;;;;;;;2.10;1.90;;;;;;;5.07;100.00;97157.72;5019142;28;20448;-59
2022/02/07 00:50:27;;;;;;;3.73;2.20;;;;;;;5.20;100.00;97142.19;5008455;28;20022;-59
2022/02/07 00:52:53;;;;;;;2.43;1.93;;;;;;;5.16;100.00;97133.81;5014289;28;20052;-56
2022/02/07 00:55:18;;;;;;;2.50;2.17;;;;;;;5.14;100.00;97127.91;5009982;28;20432;-59
2022/02/07 00:57:44;;;;;;;2.70;1.93;;;;;;;5.10;100.00;97121.22;5009457;28;20116;-60
2022/02/07 01:00:10;;;;;;;3.17;2.33;;;;;;;5.04;100.00;97126.47;5007320;28;20125;-60
2022/02/07 01:02:36;;;;;;;2.70;1.90;;;;;;;4.93;100.00;97123.28;5012049;28;20046;-59
2022/02/07 01:05:02;;;;;;;2.07;1.97;;;;;;;4.91;100.00;97120.81;5013047;28;20033;-58
2022/02/07 01:07:29;;;;;;;2.30;1.90;;;;;;;4.93;100.00;97123.28;5006729;28;20028;-57
2022/02/07 01:09:55;;;;;;;2.20;2.00;;;;;;;4.97;100.00;97115.59;5007223;28;20033;-60
2022/02/07 01:14:57;;;;;;;1.90;1.73;;;;;;;4.90;100.00;97095.44;5014829;28;20036;-60
2022/02/07 01:47:37;;;;;;;0.50;0.50;;;;;;;6.93;100.00;97052.06;5008916;28;20041;-59
2022/02/07 01:53:07;;;;;;;0.30;0.30;;;;;;;7.08;100.00;97038.88;5030802;28;20079;-59
2022/02/07 01:55:37;;;;;;;0.43;0.43;;;;;;;7.03;100.00;97043.28;5027711;28;20064;-60
2022/02/07 01:58:03;;;;;;;0.40;0.40;;;;;;;7.17;100.00;97036.03;5029488;28;20065;-60
2022/02/07 02:00:29;;;;;;;0.30;0.30;;;;;;;7.27;100.00;97041.66;5030677;28;20354;-59
2022/02/07 02:02:54;;;;;;;0.30;0.30;;;;;;;7.30;100.00;97060.25;5033133;28;20036;-57
2022/02/07 02:05:20;;;;;;;0.40;0.40;;;;;;;7.33;100.00;97075.47;5028614;28;20078;-60
2022/02/07 02:07:49;;;;;;;0.50;0.50;;;;;;;7.35;100.00;97068.59;5030115;28;20043;-58
2022/02/07 02:10:15;;;;;;;0.30;0.30;;;;;;;7.22;100.00;97069.00;5026353;28;20025;-59
2022/02/07 02:13:00;;;;;;;0.40;0.40;;;;;;;7.13;100.00;97046.38;5030780;28;20410;-59
2022/02/07 02:34:15;;;;;;;0.30;0.30;;;;;;;6.86;100.00;97055.69;5034986;28;20036;-58
2022/02/07 02:46:52;;;;;;;0.30;0.30;;;;;;;6.51;100.00;97020.22;5031956;28;20517;-60
2022/02/07 02:49:17;;;;;;;0.40;0.40;;;;;;;6.47;100.00;97005.91;5031838;28;20056;-58
2022/02/07 02:51:43;;;;;;;0.33;0.33;;;;;;;6.32;100.00;96991.94;5032371;28;20462;-59
2022/02/07 02:54:09;;;;;;;0.30;0.30;;;;;;;6.32;100.00;97017.38;5033968;28;20407;-59
2022/02/07 02:56:36;;;;;;;0.40;0.40;;;;;;;6.31;100.00;97019.09;5031221;28;20023;-58
2022/02/07 02:59:02;;;;;;;0.30;0.30;;;;;;;6.33;100.00;97016.47;5030302;28;20033;-58
2022/02/07 03:01:27;;;;;;;0.40;0.40;;;;;;;6.27;100.00;97025.13;5032728;28;20029;-59
2022/02/07 03:03:53;;;;;;;0.40;0.40;;;;;;;6.21;100.00;97025.28;5034800;28;20564;-57
2022/02/07 03:06:18;;;;;;;0.40;0.40;;;;;;;6.16;100.00;97044.94;5028540;28;20021;-59
2022/02/07 03:08:44;;;;;;;0.30;0.30;;;;;;;6.07;100.00;97036.75;5015011;28;20249;-59
2022/02/07 03:18:58;;;;;;;0.33;0.33;;;;;;;6.09;100.00;97058.72;5032558;28;20039;-60
2022/02/07 03:21:24;;;;;;;1.03;0.60;;;;;;;6.07;100.00;97057.91;5035223;28;20230;-57
2022/02/07 03:23:50;;;;;;;0.30;0.30;;;;;;;6.10;100.00;97075.66;5031120;28;20203;-58
2022/02/07 03:26:18;;;;;;;0.30;0.30;;;;;;;6.07;100.00;97083.34;5030875;28;20135;-58
2022/02/07 03:28:44;;;;;;;0.30;0.30;;;;;;;6.00;100.00;97086.09;5030873;28;20020;-58
2022/02/07 03:31:09;;;;;;;0.30;0.30;;;;;;;6.02;100.00;97091.97;5032814;28;20635;-58
2022/02/07 03:33:37;;;;;;;0.40;0.40;;;;;;;6.07;100.00;97102.88;5031320;28;20041;-58
2022/02/07 03:36:03;;;;;;;0.40;0.40;;;;;;;6.04;100.00;97103.78;5030128;28;20033;-58
2022/02/07 03:38:28;;;;;;;0.40;0.40;;;;;;;5.98;100.00;97114.13;5031468;28;20033;-59
2022/02/07 03:40:54;;;;;;;0.30;0.30;;;;;;;5.96;100.00;97126.03;5034810;28;20027;-59
2022/02/07 03:43:19;;;;;;;0.40;0.30;;;;;;;5.96;100.00;97118.41;5030671;28;20037;-58
2022/02/07 03:45:45;;;;;;;0.30;0.30;;;;;;;5.97;100.00;97123.47;5028486;28;20385;-59
2022/02/07 03:48:10;;;;;;;0.30;0.30;;;;;;;6.05;100.00;97125.81;5032542;28;20136;-58
2022/02/07 03:50:36;;;;;;;0.40;0.40;;;;;;;6.10;100.00;97136.69;5032978;28;20482;-59
2022/02/07 03:53:02;;;;;;;0.40;0.40;;;;;;;6.13;100.00;97135.78;5031860;28;20033;-60
2022/02/07 03:55:28;;;;;;;0.30;0.30;;;;;;;6.09;100.00;97141.81;5031418;28;20037;-59
2022/02/07 03:57:53;;;;;;;0.50;0.50;;;;;;;6.07;100.00;97153.75;5031382;28;20474;-57
2022/02/07 04:00:18;;;;;;;0.60;0.60;;;;;;;6.02;100.00;97156.41;5033696;28;20099;-59
2022/02/07 04:02:49;;;;;;;0.40;0.40;;;;;;;5.96;100.00;97177.75;5030955;28;20131;-60
2022/02/07 04:07:43;;;;;;;0.50;0.50;;;;;;;5.80;100.00;97190.81;5033880;28;20129;-57
2022/02/07 04:10:08;;;;;;;0.40;0.40;;;;;;;5.80;100.00;97216.25;5014452;28;20021;-59
2022/02/07 04:12:34;;;;;;;0.50;0.50;;;;;;;5.71;100.00;97196.13;5031365;28;20033;-57
2022/02/07 04:15:00;;;;;;;0.40;0.40;;;;;;;5.67;100.00;97191.97;5028725;28;20036;-57
2022/02/07 04:17:28;;;;;;;0.30;0.30;;;;;;;5.65;100.00;97211.50;5030202;28;20510;-59
2022/02/07 04:19:58;;;;;;;1.20;0.33;;;;;;;5.65;100.00;97219.13;5032360;28;20539;-59
2022/02/07 04:22:27;;;;;;;0.50;0.50;;;;;;;5.63;100.00;97261.56;5028598;28;20057;-58
2022/02/07 04:24:53;;;;;;;0.40;0.40;;;;;;;5.60;100.00;97249.72;5032064;28;20033;-59
2022/02/07 04:27:18;;;;;;;0.50;0.50;;;;;;;5.52;100.00;97254.97;5030395;28;20468;-59
2022/02/07 04:29:44;;;;;;;0.50;0.50;;;;;;;5.50;100.00;97254.19;5027982;28;20029;-59
2022/02/07 04:32:10;;;;;;;0.47;0.47;;;;;;;5.53;100.00;97263.44;5031737;28;20044;-59
2022/02/07 04:34:35;;;;;;;0.40;0.40;;;;;;;5.45;100.00;97267.84;5028471;28;20040;-58
2022/02/07 04:37:01;;;;;;;0.40;0.40;;;;;;;5.42;100.00;97318.75;5029018;28;20288;-60
2022/02/07 04:39:27;;;;;;;0.40;0.40;;;;;;;5.46;100.00;97307.66;5028414;28;20045;-60
2022/02/07 04:41:55;;;;;;;0.30;0.30;;;;;;;5.43;100.00;97292.47;5028132;28;20077;-60
2022/02/07 04:44:26;;;;;;;0.53;0.53;;;;;;;5.37;100.00;97247.69;5029209;28;20033;-58
2022/02/07 04:52:21;;;;;;;0.30;0.30;;;;;;;5.29;100.00;97210.59;5029720;28;20404;-58
2022/02/07 04:54:57;;;;;;;0.37;0.37;;;;;;;5.34;100.00;97222.34;5028032;28;20354;-60
2022/02/07 05:00:04;;;;;;;0.30;0.30;;;;;;;5.39;100.00;97210.34;5027836;28;20103;-58
2022/02/07 05:02:46;;;;;;;0.30;0.30;;;;;;;5.47;100.00;97228.81;5028745;28;20037;-56
2022/02/07 05:15:46;;;;;;;0.30;0.30;;;;;;;5.15;100.00;97235.44;5029586;28;20032;-59
2022/02/07 05:18:11;;;;;;;0.30;0.30;;;;;;;5.21;100.00;97293.75;5026955;28;20342;-58
2022/02/07 05:20:36;;;;;;;0.30;0.30;;;;;;;5.15;100.00;97235.44;5028795;28;20559;-59
2022/02/07 05:23:02;;;;;;;0.20;0.20;;;;;;;5.11;100.00;97252.44;5029205;28;20036;-57
2022/02/07 05:25:27;;;;;;;0.30;0.30;;;;;;;5.08;100.00;97209.34;5028906;28;20080;-60
2022/02/07 05:27:53;;;;;;;0.30;0.30;;;;;;;5.01;100.00;97207.78;5029009;28;20055;-59
2022/02/07 05:30:18;;;;;;;0.20;0.20;;;;;;;4.98;100.00;97215.47;5028025;28;20025;-60
2022/02/07 05:32:44;;;;;;;0.30;0.30;;;;;;;4.97;100.00;97180.75;5027772;28;20029;-60
2022/02/07 05:35:09;;;;;;;0.33;0.33;;;;;;;5.06;100.00;97152.66;5033710;28;20028;-58
2022/02/07 05:37:35;;;;;;;0.30;0.30;;;;;;;4.97;100.00;97089.34;5026584;28;20075;-59
2022/02/07 05:40:07;;;;;;;0.30;0.30;;;;;;;5.01;100.00;97090.94;5028521;28;20098;-59
2022/02/07 05:42:35;;;;;;;0.53;0.40;;;;;;;4.88;100.00;97099.72;5029783;28;20037;-59
2022/02/07 05:45:01;;;;;;;0.30;0.30;;;;;;;4.72;100.00;97111.88;5030204;28;20440;-59
2022/02/07 05:47:27;;;;;;;161.20;125.53;;;;;;;4.80;100.00;97111.72;5028572;28;20068;-59
2022/02/07 05:49:52;;;;;;;430.27;215.10;;;;;;;4.77;100.00;97117.72;5029289;28;20040;-61
2022/02/07 05:52:17;;;;;;;430.63;157.93;;;;;;;4.69;100.00;97111.13;5028323;28;20449;-59
2022/02/07 05:54:45;;;;;;;419.57;146.47;;;;;;;4.73;100.00;97125.41;5031285;28;20209;-58
2022/02/07 05:57:11;;;;;;;0.30;0.30;;;;;;;4.78;100.00;97128.69;5027308;28;20044;-59
2022/02/07 05:59:36;;;;;;;31.20;28.30;;;;;;;4.68;100.00;97171.19;5030624;28;20033;-59
2022/02/07 06:02:02;;;;;;;372.97;276.20;;;;;;;4.75;100.00;97179.53;5028437;28;20029;-60
2022/02/07 06:04:27;;;;;;;493.93;438.13;;;;;;;4.83;99.19;97203.06;5029071;28;20086;-60
2022/02/07 06:06:53;;;;;;;469.87;230.97;;;;;;;4.89;98.14;97235.94;5027000;28;20052;-59
2022/02/07 06:09:18;;;;;;;449.60;216.80;;;;;;;4.87;97.69;97220.75;5031598;28;20044;-60
2022/02/07 06:11:44;;;;;;;473.30;207.20;;;;;;;4.87;97.85;97258.84;5033317;28;20038;-60
2022/02/07 06:14:09;;;;;;;371.70;201.37;;;;;;;4.92;95.74;97243.53;5033537;28;20306;-59
2022/02/07 06:16:35;;;;;;;435.73;158.47;;;;;;;4.89;96.32;97302.81;5030831;28;20505;-58
2022/02/07 06:19:01;;;;;;;431.37;233.20;;;;;;;4.96;95.09;97257.84;5033869;28;20491;-60
2022/02/07 06:21:28;;;;;;;351.77;216.17;;;;;;;4.77;97.31;97267.50;5034189;28;20041;-61
2022/02/07 06:23:55;;;;;;;261.07;232.93;;;;;;;4.77;97.36;97270.03;5032138;28;20026;-59
2022/02/07 06:26:20;;;;;;;332.93;240.80;;;;;;;4.67;98.26;97318.47;5032068;28;20190;-59
2022/02/07 06:28:45;;;;;;;453.80;244.67;;;;;;;4.55;100.00;97340.63;5035754;28;20116;-59
2022/02/07 06:31:11;;;;;;;434.47;145.00;;;;;;;4.57;100.00;97371.91;5035572;28;20028;-59
2022/02/07 06:33:36;;;;;;;431.60;139.63;;;;;;;4.42;100.00;97374.66;5033950;28;20033;-59
2022/02/07 06:36:02;;;;;;;449.50;236.07;;;;;;;4.42;100.00;97400.03;5030149;28;20352;-58
2022/02/07 06:38:28;;;;;;;426.30;233.70;;;;;;;4.40;100.00;97464.34;5033232;28;20333;-59
2022/02/07 06:40:53;;;;;;;448.17;220.40;;;;;;;4.43;100.00;97444.00;5034400;28;20132;-60
2022/02/07 06:43:18;;;;;;;455.73;192.80;;;;;;;4.42;100.00;97511.66;5032189;28;20028;-59
2022/02/07 06:45:44;;;;;;;447.87;166.03;;;;;;;4.33;100.00;97504.16;5029180;28;20582;-59
2022/02/07 06:48:09;;;;;;;6.53;6.23;;;;;;;4.34;100.00;97536.31;5033232;28;20411;-59
2022/02/07 06:50:34;;;;;;;444.20;184.50;;;;;;;4.34;100.00;97551.53;5032152;28;20037;-60
2022/02/07 06:53:00;;;;;;;451.87;170.47;;;;;;;4.13;100.00;97592.34;5030335;28;20083;-59
2022/02/07 06:55:25;;;;;;;439.73;184.70;;;;;;;3.81;100.00;97660.28;5032524;28;20140;-59
2022/02/07 06:57:51;;;;;;;413.33;149.17;;;;;;;2.85;100.00;97678.56;5031212;28;20475;-61
2022/02/07 07:00:17;;;;;;;405.87;131.97;;;;;;;1.73;100.00;97696.47;5035019;28;20049;-59
2022/02/07 07:02:43;;;;;;;318.53;193.53;;;;;;;0.84;100.00;97707.19;5029888;28;20422;-57
2022/02/07 07:05:13;;;;;;;319.90;148.93;;;;;;;0.51;100.00;97720.44;5031488;28;20084;-60
2022/02/07 07:07:39;;;;;;;300.73;128.83;;;;;;;0.28;100.00;97743.00;5033471;28;20491;-59
2022/02/07 07:10:07;;;;;;;414.63;121.27;;;;;;;0.22;100.00;97717.75;5034705;28;20067;-59
2022/02/07 07:12:32;;;;;;;409.77;106.23;;;;;;;0.25;100.00;97716.94;5028923;28;20326;-60
2022/02/07 07:17:29;;;;;;;407.43;105.27;;;;;;;0.40;100.00;97697.72;5032111;28;20032;-58
2022/02/07 07:19:54;;;;;;;422.03;123.10;;;;;;;0.51;100.00;97699.47;5032665;28;20294;-58
2022/02/07 07:22:20;;;;;;;426.00;137.90;;;;;;;0.56;100.00;97698.63;5031342;28;20616;-58
2022/02/07 07:24:45;;;;;;;373.37;129.53;;;;;;;0.69;100.00;97702.91;5029422;28;20038;-60
2022/02/07 07:27:13;;;;;;;351.10;116.70;;;;;;;0.79;100.00;97722.31;5034658;28;20037;-60
2022/02/07 07:29:41;;;;;;;421.80;129.57;;;;;;;0.91;100.00;97701.31;5028989;28;20130;-58
2022/02/07 07:32:08;;;;;;;443.73;134.23;;;;;;;1.04;100.00;97689.59;5029302;28;20033;-59
2022/02/07 07:34:35;;;;;;;447.00;137.20;;;;;;;1.19;100.00;97698.03;5034111;28;20310;-56
2022/02/07 07:37:00;;;;;;;444.13;137.23;;;;;;;1.29;100.00;97692.19;5035148;28;20261;-57
2022/02/07 07:39:26;;;;;;;436.40;134.77;;;;;;;1.49;100.00;97683.78;5029523;28;20302;-57
2022/02/07 07:41:52;;;;;;;412.53;122.83;;;;;;;1.55;100.00;97704.88;5032052;28;20048;-58
2022/02/07 07:44:22;;;;;;;436.63;149.70;;;;;;;1.70;100.00;97707.38;5029966;28;20041;-57
2022/02/07 07:46:52;;;;;;;432.27;141.77;;;;;;;1.87;100.00;97731.84;5032972;28;20560;-58
2022/02/07 07:49:29;;;;;;;423.33;135.03;;;;;;;1.91;100.00;97736.88;5029505;28;20303;-59
2022/02/07 07:51:56;;;;;;;423.83;126.93;;;;;;;1.97;100.00;97738.59;5030086;28;20889;-57
2022/02/07 08:02:21;;;;;;;428.70;156.17;;;;;;;2.18;100.00;97739.44;5031295;28;20838;-57
2022/02/07 08:04:48;;;;;;;422.37;130.63;;;;;;;2.18;100.00;97748.69;5013901;28;20276;-58
2022/02/07 08:07:23;;;;;;;430.03;139.90;;;;;;;2.35;100.00;97784.94;5030166;28;20492;-58
2022/02/07 08:10:08;;;;;;;431.13;134.55;;;;;;;2.47;100.00;97764.69;5029819;28;20266;-57
2022/02/07 08:12:36;;;;;;;;;;;;;;;2.61;100.00;97759.63;5032479;28;20381;-58
2022/02/07 08:15:02;;;;;;;426.00;127.27;;;;;;;2.68;100.00;97759.59;5032465;28;19921;-58
2022/02/07 08:17:29;;;;;;;427.80;139.43;;;;;;;2.74;100.00;97764.66;5028772;28;20329;-56
2022/02/07 08:19:54;;;;;;;419.27;132.50;;;;;;;2.83;100.00;97773.91;5027754;28;20445;-57
2022/02/07 08:22:24;;;;;;;423.60;138.87;;;;;;;2.90;100.00;97787.38;5029207;28;20840;-59
2022/02/07 08:24:55;;;;;;;422.30;128.40;;;;;;;2.94;100.00;97819.44;5031864;28;20144;-55
2022/02/07 08:27:26;;;;;;;451.93;171.07;;;;;;;3.04;100.00;97813.53;5028183;28;20494;-56
2022/02/07 08:29:52;;;;;;;442.40;165.87;;;;;;;3.10;100.00;97824.47;5029904;28;20756;-58
2022/02/07 08:32:18;;;;;;;452.37;157.73;;;;;;;3.26;100.00;97839.63;5032217;28;20328;-58
2022/02/07 08:34:43;;;;;;;460.57;173.03;;;;;;;3.39;100.00;97842.13;5030746;28;20276;-59
2022/02/07 08:37:09;;;;;;;462.13;186.47;;;;;;;3.27;100.00;97880.13;5028128;28;20157;-58
2022/02/07 08:39:35;;;;;;;456.30;187.33;;;;;;;3.24;100.00;97875.06;5029635;28;20047;-59
2022/02/07 08:42:00;;;;;;;439.27;142.93;;;;;;;3.21;100.00;97873.41;5030981;28;20095;-59
2022/02/07 08:44:27;;;;;;;438.23;152.63;;;;;;;3.17;100.00;97878.47;5031652;28;20295;-57
2022/02/07 08:46:53;;;;;;;445.70;166.33;;;;;;;3.26;100.00;97886.06;5026429;28;20066;-58
2022/02/07 08:49:18;;;;;;;448.70;153.30;;;;;;;3.08;100.00;97909.72;5031991;28;20284;-59
2022/02/07 08:51:44;;;;;;;457.73;156.63;;;;;;;2.91;100.00;97928.31;5031392;28;20261;-58
2022/02/07 08:54:10;;;;;;;444.37;150.63;;;;;;;2.44;100.00;97916.47;5027563;28;20412;-56
2022/02/07 08:56:50;;;;;;;453.53;154.83;;;;;;;2.20;100.00;97929.06;5025718;28;20041;-58
2022/02/07 08:59:15;;;;;;;455.30;149.37;;;;;;;1.98;100.00;97937.41;5029942;28;20093;-57
2022/02/07 09:02:03;;;;;;;453.50;141.83;;;;;;;1.89;100.00;97928.13;5030568;28;20346;-59
2022/02/07 09:07:18;;;;;;;433.10;133.80;;;;;;;2.24;100.00;97945.94;5027358;28;20264;-55
2022/02/07 09:09:45;;;;;;;438.60;139.57;;;;;;;2.27;100.00;97923.16;5030743;28;20382;-58
2022/02/07 09:12:12;;;;;;;440.33;134.23;;;;;;;2.40;100.00;97886.94;5030371;28;20766;-59
2022/02/07 09:14:44;;;;;;;443.13;141.13;;;;;;;2.59;100.00;97938.41;5026405;28;20306;-57
2022/02/07 09:17:11;;;;;;;439.87;138.90;;;;;;;2.64;100.00;97967.91;5026452;28;20260;-58
2022/02/07 09:19:37;;;;;;;446.80;137.37;;;;;;;2.54;100.00;97971.31;5027871;28;20290;-58
2022/02/07 09:22:04;;;;;;;438.17;137.03;;;;;;;2.53;100.00;97963.69;5026331;28;20029;-57
2022/02/07 09:24:31;;;;;;;434.73;131.70;;;;;;;2.50;100.00;97966.22;5031481;28;20329;-57
2022/02/07 09:26:56;;;;;;;427.77;127.77;;;;;;;2.61;100.00;97989.84;5030747;28;20260;-56
2022/02/07 09:29:22;;;;;;;436.57;129.43;;;;;;;2.68;100.00;97981.41;5028125;28;20290;-54
2022/02/07 09:31:48;;;;;;;436.77;131.67;;;;;;;2.86;100.00;98009.28;5026533;28;20040;-56
2022/02/07 09:34:14;;;;;;;423.20;124.50;;;;;;;2.93;100.00;97977.25;5027225;28;20029;-56
2022/02/07 09:36:39;;;;;;;418.37;123.57;;;;;;;3.09;100.00;97994.13;5026333;28;20029;-57
2022/02/07 09:39:05;;;;;;;420.27;128.23;;;;;;;3.15;100.00;97999.19;5026934;28;20041;-56
2022/02/07 09:41:32;;;;;;;430.83;141.63;;;;;;;2.98;100.00;97993.25;5024056;28;20068;-54
2022/02/07 09:44:01;;;;;;;427.57;138.67;;;;;;;2.93;100.00;98022.81;5027797;28;20403;-58
2022/02/07 09:46:43;;;;;;;442.47;149.80;;;;;;;3.11;100.00;98008.47;5029491;28;20373;-56
2022/02/07 09:49:10;;;;;;;447.70;142.60;;;;;;;3.30;100.00;98008.47;5027572;28;20330;-57
2022/02/07 09:51:36;;;;;;;444.47;144.43;;;;;;;3.35;100.00;98014.41;5027475;28;20268;-56
2022/02/07 09:54:01;;;;;;;436.50;144.07;;;;;;;3.52;100.00;98023.66;5026222;28;20276;-58
2022/02/07 09:56:27;;;;;;;430.37;142.17;;;;;;;3.67;100.00;98016.03;5027689;28;20037;-58
2022/02/07 09:58:53;;;;;;;426.97;134.00;;;;;;;3.65;100.00;98016.88;5025740;28;20488;-57
2022/02/07 10:01:27;;;;;;;432.03;140.57;;;;;;;3.58;100.00;98031.25;5028595;28;20029;-58
2022/02/07 10:04:01;;;;;;;449.63;151.17;;;;;;;3.63;100.00;98032.09;5024524;28;20264;-56
2022/02/07 10:06:48;;;;;;;454.17;153.63;;;;;;;3.65;100.00;98027.84;5026792;28;20303;-58
2022/02/07 10:14:24;;;;;;;435.67;154.57;;;;;;;3.95;100.00;98015.97;5023030;28;20303;-59
2022/02/07 10:17:04;;;;;;;434.97;153.60;;;;;;;3.95;100.00;98031.16;5029853;28;20271;-57
2022/02/07 10:19:43;;;;;;;429.70;146.77;;;;;;;4.12;100.00;98034.50;5029108;28;20292;-57
2022/02/07 10:36:42;;;;;;;447.47;158.20;;;;;;;3.87;100.00;98048.94;5028126;28;20323;-58
2022/02/07 10:45:11;;;;;;;440.83;152.30;;;;;;;4.17;100.00;98053.09;5023889;28;20037;-58
2022/02/07 10:47:31;;;;;;;419.93;133.10;;;;;;;4.18;100.00;98062.41;5024151;28;20379;-55
2022/02/07 10:50:18;;;;;;;418.07;139.03;;;;;;;4.42;100.00;98077.53;5026934;28;20279;-57
2022/02/07 10:52:51;;;;;;;420.83;134.60;;;;;;;4.48;100.00;98064.00;5024987;28;20275;-57
2022/02/07 10:55:26;;;;;;;428.87;140.87;;;;;;;4.33;100.00;98077.56;5031265;28;20358;-56
2022/02/07 10:57:54;;;;;;;432.10;147.47;;;;;;;4.27;100.00;98087.75;5032693;28;20685;-60
2022/02/07 11:00:25;;;;;;;445.83;163.50;;;;;;;4.38;100.00;98111.38;5031595;28;20025;-58
2022/02/07 11:03:16;;;;;;;426.97;142.60;;;;;;;4.42;100.00;98115.59;5029730;28;20275;-59
2022/02/07 11:05:46;;;;;;;427.17;150.00;;;;;;;4.47;98.34;98121.50;5032849;28;20339;-58
2022/02/07 11:08:44;;;;;;;433.27;151.97;;;;;;;4.63;94.25;98104.53;5024089;28;20301;-59
2022/02/07 11:16:22;;;;;;;418.40;139.90;;;;;;;4.52;93.34;98129.97;4995633;28;20280;-59
2022/02/07 11:19:02;;;;;;;457.30;171.45;;;;;;;4.44;95.19;98149.44;4991915;28;20092;-59
2022/02/07 11:24:26;;;;;;;444.07;159.67;;;;;;;4.46;99.44;98151.97;4993021;28;20332;-59
2022/02/07 11:26:51;;;;;;;443.70;165.67;;;;;;;4.34;100.00;98132.53;4993247;28;20278;-61
2022/02/07 11:29:49;;;;;;;438.73;160.60;;;;;;;4.47;100.00;98148.59;4990316;28;20265;-62
2022/02/07 11:32:45;;;;;;;429.47;144.77;;;;;;;4.37;100.00;98155.38;4992076;28;20373;-60
2022/02/07 11:35:10;;;;;;;;;;;;;;;4.24;100.00;98166.41;4986748;28;20616;-58
2022/02/07 11:37:37;;;;;;;446.63;155.97;;;;;;;4.20;100.00;98154.56;4991434;28;19972;-56
2022/02/07 11:40:32;;;;;;;442.03;153.70;;;;;;;4.33;100.00;98160.47;4992111;28;20034;-59
2022/02/07 11:43:16;;;;;;;428.77;141.23;;;;;;;4.35;100.00;98161.31;4992059;28;20268;-57
2022/02/07 11:45:54;;;;;;;429.20;143.50;;;;;;;4.36;100.00;98161.31;4991849;28;20352;-59
2022/02/07 11:48:26;;;;;;;430.23;147.40;;;;;;;4.46;100.00;98188.34;4999024;28;21055;-56
2022/02/07 11:50:58;;;;;;;427.20;141.43;;;;;;;4.36;100.00;98163.84;5007922;28;20300;-58
2022/02/07 11:53:34;;;;;;;431.13;146.90;;;;;;;4.38;100.00;98184.13;5010721;28;20287;-59
2022/02/07 11:56:28;;;;;;;429.27;145.00;;;;;;;4.51;99.33;98166.34;5010607;28;20849;-60
2022/02/07 11:59:09;;;;;;;431.47;146.43;;;;;;;4.69;100.00;98187.44;5002212;28;20287;-59
2022/02/07 12:01:59;;;;;;;433.97;147.73;;;;;;;4.63;100.00;98208.59;5010460;28;20272;-59
2022/02/07 12:04:37;;;;;;;443.27;157.03;;;;;;;4.57;100.00;98214.56;5013526;28;20482;-59
2022/02/07 12:07:15;;;;;;;437.33;150.23;;;;;;;4.56;100.00;98220.47;5009169;28;20678;-59
2022/02/07 12:10:00;;;;;;;446.57;160.13;;;;;;;4.65;100.00;98194.22;5013649;28;20273;-57
2022/02/07 12:12:48;;;;;;;440.80;156.00;;;;;;;4.57;100.00;98196.78;5012909;28;20261;-58
2022/02/07 12:15:32;;;;;;;429.40;144.07;;;;;;;4.76;100.00;98202.66;5011922;28;20375;-58
2022/02/07 12:18:00;;;;;;;432.90;148.70;;;;;;;4.77;100.00;98198.41;5010848;28;20372;-60
2022/02/07 12:20:37;;;;;;;428.90;145.93;;;;;;;5.03;100.00;98204.25;5011084;28;20253;-58
2022/02/07 12:23:11;;;;;;;433.47;149.73;;;;;;;5.02;100.00;98215.25;5015422;28;20360;-57
2022/02/07 12:25:38;;;;;;;319.50;112.38;;;;;;;4.94;100.00;98230.53;5013014;28;20292;-57
2022/02/07 12:28:07;;;;;;;428.53;149.70;;;;;;;4.77;100.00;98214.50;5009123;28;20507;-58
2022/02/07 12:30:45;;;;;;;438.77;158.40;;;;;;;4.54;100.00;98232.31;5012249;28;20264;-58
2022/02/07 12:33:12;;;;;;;436.47;151.10;;;;;;;4.35;100.00;98248.44;5013450;28;20296;-57
2022/02/07 12:35:37;;;;;;;441.20;154.63;;;;;;;4.11;100.00;98250.97;5009607;28;20276;-58
2022/02/07 12:38:04;;;;;;;442.20;151.93;;;;;;;3.68;100.00;98275.41;5011185;28;20746;-58
2022/02/07 12:40:30;;;;;;;442.17;158.13;;;;;;;3.11;100.00;98286.19;5009764;28;20504;-57
2022/02/07 12:42:56;;;;;;;434.80;138.53;;;;;;;2.90;100.00;98303.78;5013966;28;20279;-58
2022/02/07 12:45:27;;;;;;;425.37;131.10;;;;;;;2.84;100.00;98329.06;5010682;28;20268;-59
2022/02/07 12:48:09;;;;;;;422.83;126.53;;;;;;;2.46;100.00;98351.56;5008479;28;20566;-56
2022/02/07 12:50:35;;;;;;;422.47;124.97;;;;;;;2.30;100.00;98351.41;5013784;28;20291;-58
2022/02/07 12:53:00;;;;;;;418.03;121.77;;;;;;;2.29;100.00;98352.25;5011674;28;20339;-58
2022/02/07 12:55:26;;;;;;;427.47;126.03;;;;;;;2.27;100.00;98364.03;5008155;28;20037;-57
2022/02/07 12:57:51;;;;;;;425.80;124.23;;;;;;;2.24;100.00;98363.19;5008289;28;20033;-59
2022/02/07 13:00:20;;;;;;;422.63;124.00;;;;;;;2.50;100.00;98345.69;5008360;28;20036;-58
2022/02/07 13:02:48;;;;;;;440.77;133.73;;;;;;;2.60;100.00;98363.47;5008338;28;20035;-60
2022/02/07 13:05:16;;;;;;;445.50;138.63;;;;;;;2.72;100.00;98355.13;5007085;28;20273;-58
2022/02/07 13:07:47;;;;;;;449.90;145.20;;;;;;;2.85;100.00;98361.97;5006340;28;20314;-58
2022/02/07 13:10:18;;;;;;;439.87;137.67;;;;;;;3.04;100.00;98361.28;5008949;28;20700;-58
2022/02/07 13:15:23;;;;;;;434.87;139.00;;;;;;;3.35;100.00;98357.25;5006807;28;20581;-58
2022/02/07 13:17:55;;;;;;;428.77;132.80;;;;;;;3.43;100.00;98359.81;5010509;28;20276;-56
2022/02/07 13:20:22;;;;;;;412.50;128.07;;;;;;;3.48;100.00;98394.44;5010011;28;20265;-59
2022/02/07 13:22:59;;;;;;;434.03;137.30;;;;;;;3.76;100.00;98356.56;5008673;28;20263;-59
2022/02/07 13:25:24;;;;;;;436.97;143.30;;;;;;;3.86;100.00;98360.81;5007846;28;20832;-56
2022/02/07 13:27:55;;;;;;;432.40;140.23;;;;;;;3.83;100.00;98354.03;5008871;28;20697;-57
2022/02/07 13:30:21;;;;;;;422.20;139.00;;;;;;;3.91;100.00;98366.72;5008867;28;20324;-60
2022/02/07 13:32:49;;;;;;;439.20;142.93;;;;;;;3.80;100.00;98354.03;5006879;28;20330;-58
2022/02/07 13:35:16;;;;;;;434.53;142.07;;;;;;;3.75;100.00;98383.59;5009001;28;20068;-57
2022/02/07 13:37:43;;;;;;;433.30;139.60;;;;;;;3.67;100.00;98425.81;5010452;28;20272;-59
2022/02/07 13:40:21;;;;;;;434.80;139.17;;;;;;;3.67;100.00;98400.47;5009039;28;20307;-57
2022/02/07 13:42:49;;;;;;;437.63;145.73;;;;;;;3.63;100.00;98388.63;5006286;28;20692;-58
2022/02/07 13:45:20;;;;;;;424.57;135.00;;;;;;;3.66;100.00;98398.75;5008443;28;20718;-57
2022/02/07 13:48:04;;;;;;;435.27;140.43;;;;;;;3.57;100.00;98401.25;5010563;28;20650;-58
2022/02/07 13:50:31;;;;;;;421.57;132.63;;;;;;;3.61;100.00;98401.28;5009093;28;20658;-58